To NAV CANADA Home Page Login to a new session Search on AWWS site Feedback and Comments Disclaimer Vers la page française équivalente Tips FAQ What's new on the site To the Forecasts and Observations / NOTAM section To "File a Flight Plan" website Publications and other links Update of the User's profile FIC Telephone Numbers My Weather Data Folder Route Weather Data Regional Weather Data Local Weather Data To the Forecasts and Observations / NOTAM section
Request Generated 08/31/2016 at 07:52:30 UTC . Weather information available at that time is displayed.

METAR/TAF

OTTAWA/GATINEAU/QC    

LWIS CYND 310700Z AUTO 23004KT 20/17 A2992=
LWIS CYND 310600Z AUTO 28004KT 20/18 A2992=
LWIS CYND 310500Z AUTO 24003KT 20/18 A2992=

*** REMARK        : Forecast period has ended; this was the last TAF issued
*** REMARQUE : La période de prévision est échue; ceci était le dernier TAF qui a été émis
TAF CYND 301739Z 3018/3101 25008KT P6SM FEW040 SCT100 BKN250
FM302200 25008KT P6SM SCT040 BKN080 TEMPO 3022/3101 P6SM -SHRA
BKN040 OVC080 PROB30 3022/3101 2SM TSRA BKN020 OVC040CB
RMK NXT FCST WILL BE ISSUED AT 311245Z=
Your time UTC time
Weather data provided by Environment Canada and NAV CANADA